sensor_id;sensor_type;location;lat;lon;timestamp;temperature;humidity
20442;DHT22;10380;52.102;20.614;2022-08-21T00:00:23;22.90;99.90
20442;DHT22;10380;52.102;20.614;2022-08-21T00:02:56;22.90;99.90
20442;DHT22;10380;52.102;20.614;2022-08-21T00:05:25;22.80;99.90
20442;DHT22;10380;52.102;20.614;2022-08-21T00:07:53;22.80;99.90
20442;DHT22;10380;52.102;20.614;2022-08-21T00:10:21;22.80;99.90
20442;DHT22;10380;52.102;20.614;2022-08-21T00:12:52;22.80;99.90
20442;DHT22;10380;52.102;20.614;2022-08-21T00:15:25;22.80;99.90
20442;DHT22;10380;52.102;20.614;2022-08-21T00:17:55;22.80;99.90
20442;DHT22;10380;52.102;20.614;2022-08-21T00:20:25;22.80;99.90
20442;DHT22;10380;52.102;20.614;2022-08-21T00:22:52;22.70;99.90
20442;DHT22;10380;52.102;20.614;2022-08-21T00:25:21;22.70;99.90
20442;DHT22;10380;52.102;20.614;2022-08-21T00:27:52;22.70;99.90
20442;DHT22;10380;52.102;20.614;2022-08-21T00:30:22;22.60;99.90
20442;DHT22;10380;52.102;20.614;2022-08-21T00:32:50;22.70;99.90
20442;DHT22;10380;52.102;20.614;2022-08-21T00:35:22;22.70;99.90
20442;DHT22;10380;52.102;20.614;2022-08-21T00:37:50;22.60;99.90
20442;DHT22;10380;52.102;20.614;2022-08-21T00:40:22;22.50;99.90
20442;DHT22;10380;52.102;20.614;2022-08-21T00:42:50;22.60;99.90
20442;DHT22;10380;52.102;20.614;2022-08-21T00:45:22;22.60;99.90
20442;DHT22;10380;52.102;20.614;2022-08-21T00:47:51;22.50;99.90
20442;DHT22;10380;52.102;20.614;2022-08-21T00:50:19;22.60;99.90
20442;DHT22;10380;52.102;20.614;2022-08-21T00:52:50;22.60;99.90
20442;DHT22;10380;52.102;20.614;2022-08-21T00:55:18;22.50;99.90
20442;DHT22;10380;52.102;20.614;2022-08-21T00:57:52;22.50;99.90
20442;DHT22;10380;52.102;20.614;2022-08-21T01:00:30;22.40;99.90
20442;DHT22;10380;52.102;20.614;2022-08-21T01:02:59;22.40;99.90
20442;DHT22;10380;52.102;20.614;2022-08-21T01:05:27;22.40;99.90
20442;DHT22;10380;52.102;20.614;2022-08-21T01:07:54;22.40;99.90
20442;DHT22;10380;52.102;20.614;2022-08-21T01:10:24;22.40;99.90
20442;DHT22;10380;52.102;20.614;2022-08-21T01:12:53;22.40;99.90
20442;DHT22;10380;52.102;20.614;2022-08-21T01:15:26;22.40;99.90
20442;DHT22;10380;52.102;20.614;2022-08-21T01:17:55;22.30;99.90
20442;DHT22;10380;52.102;20.614;2022-08-21T01:20:24;22.30;99.90
20442;DHT22;10380;52.102;20.614;2022-08-21T01:23:00;22.30;99.90
20442;DHT22;10380;52.102;20.614;2022-08-21T01:25:27;22.20;99.90
20442;DHT22;10380;52.102;20.614;2022-08-21T01:27:55;22.20;99.90
20442;DHT22;10380;52.102;20.614;2022-08-21T01:30:24;22.20;99.90
20442;DHT22;10380;52.102;20.614;2022-08-21T01:32:53;22.10;99.90
20442;DHT22;10380;52.102;20.614;2022-08-21T01:35:21;22.10;99.90
20442;DHT22;10380;52.102;20.614;2022-08-21T01:37:48;22.10;99.90
20442;DHT22;10380;52.102;20.614;2022-08-21T01:40:16;22.10;99.90
20442;DHT22;10380;52.102;20.614;2022-08-21T01:42:46;22.10;99.90
20442;DHT22;10380;52.102;20.614;2022-08-21T01:45:14;22.10;99.90
20442;DHT22;10380;52.102;20.614;2022-08-21T01:47:44;22.00;99.90
20442;DHT22;10380;52.102;20.614;2022-08-21T01:50:15;22.00;99.90
20442;DHT22;10380;52.102;20.614;2022-08-21T01:52:43;22.00;99.90
20442;DHT22;10380;52.102;20.614;2022-08-21T01:55:12;21.90;99.90
20442;DHT22;10380;52.102;20.614;2022-08-21T01:57:41;21.90;99.90
20442;DHT22;10380;52.102;20.614;2022-08-21T02:00:13;21.80;99.90
20442;DHT22;10380;52.102;20.614;2022-08-21T02:02:41;21.80;99.90
20442;DHT22;10380;52.102;20.614;2022-08-21T02:05:11;21.70;99.90
20442;DHT22;10380;52.102;20.614;2022-08-21T02:07:42;21.70;99.90
20442;DHT22;10380;52.102;20.614;2022-08-21T02:10:12;21.60;99.90
20442;DHT22;10380;52.102;20.614;2022-08-21T02:12:40;21.60;99.90
20442;DHT22;10380;52.102;20.614;2022-08-21T02:15:08;21.60;99.90
20442;DHT22;10380;52.102;20.614;2022-08-21T02:17:45;21.60;99.90
20442;DHT22;10380;52.102;20.614;2022-08-21T02:20:18;21.60;99.90
20442;DHT22;10380;52.102;20.614;2022-08-21T02:22:48;21.60;99.90
20442;DHT22;10380;52.102;20.614;2022-08-21T02:25:17;21.50;99.90
20442;DHT22;10380;52.102;20.614;2022-08-21T02:27:46;21.50;99.90
20442;DHT22;10380;52.102;20.614;2022-08-21T02:30:19;21.50;99.90
20442;DHT22;10380;52.102;20.614;2022-08-21T02:32:46;21.50;99.90
20442;DHT22;10380;52.102;20.614;2022-08-21T02:35:19;21.40;99.90
20442;DHT22;10380;52.102;20.614;2022-08-21T02:37:50;21.40;99.90
20442;DHT22;10380;52.102;20.614;2022-08-21T02:40:22;21.40;99.90
20442;DHT22;10380;52.102;20.614;2022-08-21T02:42:55;21.40;99.90
20442;DHT22;10380;52.102;20.614;2022-08-21T02:45:26;21.30;99.90
20442;DHT22;10380;52.102;20.614;2022-08-21T02:48:00;21.20;99.90
20442;DHT22;10380;52.102;20.614;2022-08-21T02:50:33;21.20;99.90
20442;DHT22;10380;52.102;20.614;2022-08-21T02:53:01;21.20;99.90
20442;DHT22;10380;52.102;20.614;2022-08-21T02:55:30;21.10;99.90
20442;DHT22;10380;52.102;20.614;2022-08-21T02:57:59;21.10;99.90
20442;DHT22;10380;52.102;20.614;2022-08-21T03:00:28;21.10;99.90
20442;DHT22;10380;52.102;20.614;2022-08-21T03:02:57;21.10;99.90
20442;DHT22;10380;52.102;20.614;2022-08-21T03:05:27;21.00;99.90
20442;DHT22;10380;52.102;20.614;2022-08-21T03:07:54;21.00;99.90
20442;DHT22;10380;52.102;20.614;2022-08-21T03:10:22;21.00;99.90
20442;DHT22;10380;52.102;20.614;2022-08-21T03:12:49;21.00;99.90
20442;DHT22;10380;52.102;20.614;2022-08-21T03:15:19;21.00;99.90
20442;DHT22;10380;52.102;20.614;2022-08-21T03:17:47;21.00;99.90
20442;DHT22;10380;52.102;20.614;2022-08-21T03:20:18;21.00;99.90
20442;DHT22;10380;52.102;20.614;2022-08-21T03:22:45;21.00;99.90
20442;DHT22;10380;52.102;20.614;2022-08-21T03:25:20;20.90;99.90
20442;DHT22;10380;52.102;20.614;2022-08-21T03:28:01;20.90;99.90
20442;DHT22;10380;52.102;20.614;2022-08-21T03:30:29;20.90;99.90
20442;DHT22;10380;52.102;20.614;2022-08-21T03:32:58;20.80;99.90
20442;DHT22;10380;52.102;20.614;2022-08-21T03:35:27;20.80;99.90
20442;DHT22;10380;52.102;20.614;2022-08-21T03:37:56;20.80;99.90
20442;DHT22;10380;52.102;20.614;2022-08-21T03:40:24;20.80;99.90
20442;DHT22;10380;52.102;20.614;2022-08-21T03:42:52;20.80;99.90
20442;DHT22;10380;52.102;20.614;2022-08-21T03:45:20;20.70;99.90
20442;DHT22;10380;52.102;20.614;2022-08-21T03:50:19;20.70;99.90
20442;DHT22;10380;52.102;20.614;2022-08-21T03:52:47;20.70;99.90
20442;DHT22;10380;52.102;20.614;2022-08-21T03:55:14;20.70;99.90
20442;DHT22;10380;52.102;20.614;2022-08-21T03:57:42;20.70;99.90
20442;DHT22;10380;52.102;20.614;2022-08-21T04:00:12;20.70;99.90
20442;DHT22;10380;52.102;20.614;2022-08-21T04:02:41;20.70;99.90
20442;DHT22;10380;52.102;20.614;2022-08-21T04:05:08;20.80;99.90
20442;DHT22;10380;52.102;20.614;2022-08-21T04:07:36;20.80;99.90
20442;DHT22;10380;52.102;20.614;2022-08-21T04:10:06;20.80;99.90
20442;DHT22;10380;52.102;20.614;2022-08-21T04:12:33;20.80;99.90
20442;DHT22;10380;52.102;20.614;2022-08-21T04:15:02;20.80;99.90
20442;DHT22;10380;52.102;20.614;2022-08-21T04:17:32;20.90;99.90
20442;DHT22;10380;52.102;20.614;2022-08-21T04:19:59;20.90;99.90
20442;DHT22;10380;52.102;20.614;2022-08-21T04:22:27;21.00;99.90
20442;DHT22;10380;52.102;20.614;2022-08-21T04:24:54;21.00;99.90
20442;DHT22;10380;52.102;20.614;2022-08-21T04:27:22;21.10;99.90
20442;DHT22;10380;52.102;20.614;2022-08-21T04:29:50;21.20;99.90
20442;DHT22;10380;52.102;20.614;2022-08-21T04:32:24;21.30;99.90
20442;DHT22;10380;52.102;20.614;2022-08-21T04:35:03;21.30;99.90
20442;DHT22;10380;52.102;20.614;2022-08-21T04:37:31;21.40;99.90
20442;DHT22;10380;52.102;20.614;2022-08-21T04:39:58;21.50;99.90
20442;DHT22;10380;52.102;20.614;2022-08-21T04:42:29;21.50;99.90
20442;DHT22;10380;52.102;20.614;2022-08-21T04:44:59;21.60;99.90
20442;DHT22;10380;52.102;20.614;2022-08-21T04:47:28;21.70;99.90
20442;DHT22;10380;52.102;20.614;2022-08-21T04:50:21;21.80;99.90
20442;DHT22;10380;52.102;20.614;2022-08-21T04:52:49;21.80;99.90
20442;DHT22;10380;52.102;20.614;2022-08-21T04:55:18;21.80;99.90
20442;DHT22;10380;52.102;20.614;2022-08-21T04:57:45;21.90;99.90
20442;DHT22;10380;52.102;20.614;2022-08-21T05:00:22;21.90;99.90
20442;DHT22;10380;52.102;20.614;2022-08-21T05:02:53;21.90;99.90
20442;DHT22;10380;52.102;20.614;2022-08-21T05:05:27;22.00;99.90
20442;DHT22;10380;52.102;20.614;2022-08-21T05:07:59;21.90;99.90
20442;DHT22;10380;52.102;20.614;2022-08-21T05:10:27;22.00;99.90
20442;DHT22;10380;52.102;20.614;2022-08-21T05:12:55;22.00;99.90
20442;DHT22;10380;52.102;20.614;2022-08-21T05:15:23;22.00;99.90
20442;DHT22;10380;52.102;20.614;2022-08-21T05:17:51;22.00;99.90
20442;DHT22;10380;52.102;20.614;2022-08-21T05:20:28;22.00;99.90
20442;DHT22;10380;52.102;20.614;2022-08-21T05:22:56;22.10;99.90
20442;DHT22;10380;52.102;20.614;2022-08-21T05:25:25;22.10;99.90
20442;DHT22;10380;52.102;20.614;2022-08-21T05:27:54;22.20;99.90
20442;DHT22;10380;52.102;20.614;2022-08-21T05:30:27;22.20;99.90
20442;DHT22;10380;52.102;20.614;2022-08-21T05:32:59;22.20;99.90
20442;DHT22;10380;52.102;20.614;2022-08-21T05:35:29;22.30;99.90
20442;DHT22;10380;52.102;20.614;2022-08-21T05:37:57;22.30;99.90
20442;DHT22;10380;52.102;20.614;2022-08-21T05:40:24;22.30;99.90
20442;DHT22;10380;52.102;20.614;2022-08-21T05:42:55;22.40;99.90
20442;DHT22;10380;52.102;20.614;2022-08-21T05:45:24;22.40;99.90
20442;DHT22;10380;52.102;20.614;2022-08-21T05:48:21;22.40;99.90
20442;DHT22;10380;52.102;20.614;2022-08-21T05:50:50;22.50;99.90
20442;DHT22;10380;52.102;20.614;2022-08-21T05:53:19;22.50;99.90
20442;DHT22;10380;52.102;20.614;2022-08-21T05:55:46;22.60;99.90
20442;DHT22;10380;52.102;20.614;2022-08-21T05:58:16;22.60;99.90
20442;DHT22;10380;52.102;20.614;2022-08-21T06:00:45;22.70;99.90
20442;DHT22;10380;52.102;20.614;2022-08-21T06:03:16;22.80;99.90
20442;DHT22;10380;52.102;20.614;2022-08-21T06:05:44;22.90;99.90
20442;DHT22;10380;52.102;20.614;2022-08-21T06:08:13;22.90;99.90
20442;DHT22;10380;52.102;20.614;2022-08-21T06:10:41;23.00;99.90
20442;DHT22;10380;52.102;20.614;2022-08-21T06:13:08;23.00;99.90
20442;DHT22;10380;52.102;20.614;2022-08-21T06:15:36;23.10;99.90
20442;DHT22;10380;52.102;20.614;2022-08-21T06:18:03;23.10;99.90
20442;DHT22;10380;52.102;20.614;2022-08-21T06:20:30;23.20;99.90
20442;DHT22;10380;52.102;20.614;2022-08-21T06:22:58;23.30;99.90
20442;DHT22;10380;52.102;20.614;2022-08-21T06:25:26;23.40;99.90
20442;DHT22;10380;52.102;20.614;2022-08-21T06:27:53;23.50;99.90
20442;DHT22;10380;52.102;20.614;2022-08-21T06:30:20;23.60;99.90
20442;DHT22;10380;52.102;20.614;2022-08-21T06:32:47;23.70;99.90
20442;DHT22;10380;52.102;20.614;2022-08-21T06:35:14;23.90;99.90
20442;DHT22;10380;52.102;20.614;2022-08-21T06:37:41;23.90;99.90
20442;DHT22;10380;52.102;20.614;2022-08-21T06:40:09;24.00;99.90
20442;DHT22;10380;52.102;20.614;2022-08-21T06:42:39;24.10;99.90
20442;DHT22;10380;52.102;20.614;2022-08-21T06:45:09;24.10;99.90
20442;DHT22;10380;52.102;20.614;2022-08-21T06:47:36;24.30;99.90
20442;DHT22;10380;52.102;20.614;2022-08-21T06:50:04;24.30;99.90
20442;DHT22;10380;52.102;20.614;2022-08-21T06:52:38;24.40;99.90
20442;DHT22;10380;52.102;20.614;2022-08-21T06:55:07;24.40;99.90
20442;DHT22;10380;52.102;20.614;2022-08-21T06:57:35;24.40;99.90
20442;DHT22;10380;52.102;20.614;2022-08-21T07:00:05;24.30;99.90
20442;DHT22;10380;52.102;20.614;2022-08-21T07:02:33;24.30;99.90
20442;DHT22;10380;52.102;20.614;2022-08-21T07:05:01;24.30;99.90
20442;DHT22;10380;52.102;20.614;2022-08-21T07:07:44;24.40;99.90
20442;DHT22;10380;52.102;20.614;2022-08-21T07:10:12;24.40;99.90
20442;DHT22;10380;52.102;20.614;2022-08-21T07:12:49;24.50;99.90
20442;DHT22;10380;52.102;20.614;2022-08-21T07:15:26;24.60;99.90
20442;DHT22;10380;52.102;20.614;2022-08-21T07:17:53;24.70;99.90
20442;DHT22;10380;52.102;20.614;2022-08-21T07:20:20;24.70;99.90
20442;DHT22;10380;52.102;20.614;2022-08-21T07:22:47;24.80;99.90
20442;DHT22;10380;52.102;20.614;2022-08-21T07:25:14;25.00;99.90
20442;DHT22;10380;52.102;20.614;2022-08-21T07:27:41;25.00;99.90
20442;DHT22;10380;52.102;20.614;2022-08-21T07:30:08;25.00;99.90
20442;DHT22;10380;52.102;20.614;2022-08-21T07:32:35;25.10;99.90
20442;DHT22;10380;52.102;20.614;2022-08-21T07:35:03;25.10;99.90
20442;DHT22;10380;52.102;20.614;2022-08-21T07:37:30;25.20;99.90
20442;DHT22;10380;52.102;20.614;2022-08-21T07:39:57;25.30;99.90
20442;DHT22;10380;52.102;20.614;2022-08-21T07:42:24;25.40;99.90
20442;DHT22;10380;52.102;20.614;2022-08-21T07:44:54;25.60;99.90
20442;DHT22;10380;52.102;20.614;2022-08-21T07:47:22;25.70;99.90
20442;DHT22;10380;52.102;20.614;2022-08-21T07:50:08;25.80;99.90
20442;DHT22;10380;52.102;20.614;2022-08-21T07:52:35;26.00;99.90
20442;DHT22;10380;52.102;20.614;2022-08-21T07:55:02;26.10;99.90
20442;DHT22;10380;52.102;20.614;2022-08-21T07:57:33;26.30;99.90
20442;DHT22;10380;52.102;20.614;2022-08-21T08:00:00;26.30;99.90
20442;DHT22;10380;52.102;20.614;2022-08-21T08:02:29;26.30;99.90
20442;DHT22;10380;52.102;20.614;2022-08-21T08:05:00;26.40;99.90
20442;DHT22;10380;52.102;20.614;2022-08-21T08:07:27;26.40;99.90
20442;DHT22;10380;52.102;20.614;2022-08-21T08:09:55;26.50;99.90
20442;DHT22;10380;52.102;20.614;2022-08-21T08:12:22;26.60;99.90
20442;DHT22;10380;52.102;20.614;2022-08-21T08:14:49;26.70;99.90
20442;DHT22;10380;52.102;20.614;2022-08-21T08:17:16;26.80;99.90
20442;DHT22;10380;52.102;20.614;2022-08-21T08:19:43;27.00;99.90
20442;DHT22;10380;52.102;20.614;2022-08-21T08:22:15;27.00;99.90
20442;DHT22;10380;52.102;20.614;2022-08-21T08:24:43;27.10;99.90
20442;DHT22;10380;52.102;20.614;2022-08-21T08:27:10;27.20;99.90
20442;DHT22;10380;52.102;20.614;2022-08-21T08:29:37;27.20;99.90
20442;DHT22;10380;52.102;20.614;2022-08-21T08:32:05;27.30;99.90
20442;DHT22;10380;52.102;20.614;2022-08-21T08:34:37;27.40;99.90
20442;DHT22;10380;52.102;20.614;2022-08-21T08:37:05;27.40;99.90
20442;DHT22;10380;52.102;20.614;2022-08-21T08:39:33;27.40;99.90
20442;DHT22;10380;52.102;20.614;2022-08-21T08:42:16;27.50;99.90
20442;DHT22;10380;52.102;20.614;2022-08-21T08:45:20;27.60;99.90
20442;DHT22;10380;52.102;20.614;2022-08-21T08:47:56;27.60;99.90
20442;DHT22;10380;52.102;20.614;2022-08-21T08:50:48;27.60;99.90
20442;DHT22;10380;52.102;20.614;2022-08-21T08:53:23;27.70;99.90
20442;DHT22;10380;52.102;20.614;2022-08-21T08:55:53;27.70;99.90
20442;DHT22;10380;52.102;20.614;2022-08-21T08:58:27;27.70;99.90
20442;DHT22;10380;52.102;20.614;2022-08-21T09:00:57;27.70;99.90
20442;DHT22;10380;52.102;20.614;2022-08-21T09:03:25;27.70;99.90
20442;DHT22;10380;52.102;20.614;2022-08-21T09:05:58;27.70;99.90
20442;DHT22;10380;52.102;20.614;2022-08-21T09:11:20;27.90;99.90
20442;DHT22;10380;52.102;20.614;2022-08-21T09:22:24;28.30;99.90
20442;DHT22;10380;52.102;20.614;2022-08-21T09:27:50;28.50;99.90
20442;DHT22;10380;52.102;20.614;2022-08-21T09:30:20;28.50;99.90
20442;DHT22;10380;52.102;20.614;2022-08-21T09:32:50;28.60;99.90
20442;DHT22;10380;52.102;20.614;2022-08-21T09:35:19;28.60;99.90
20442;DHT22;10380;52.102;20.614;2022-08-21T09:38:02;28.60;99.90
20442;DHT22;10380;52.102;20.614;2022-08-21T09:40:44;28.70;99.90
20442;DHT22;10380;52.102;20.614;2022-08-21T09:45:40;28.90;99.90
20442;DHT22;10380;52.102;20.614;2022-08-21T09:48:42;29.00;99.90
20442;DHT22;10380;52.102;20.614;2022-08-21T09:51:13;29.10;99.90
20442;DHT22;10380;52.102;20.614;2022-08-21T09:53:55;29.20;99.90
20442;DHT22;10380;52.102;20.614;2022-08-21T09:56:35;29.30;99.90
20442;DHT22;10380;52.102;20.614;2022-08-21T09:59:31;29.20;99.90
20442;DHT22;10380;52.102;20.614;2022-08-21T10:02:24;29.20;99.90
20442;DHT22;10380;52.102;20.614;2022-08-21T10:05:19;29.20;99.90
20442;DHT22;10380;52.102;20.614;2022-08-21T10:07:44;29.20;99.90
20442;DHT22;10380;52.102;20.614;2022-08-21T10:10:25;29.20;99.90
20442;DHT22;10380;52.102;20.614;2022-08-21T10:13:22;29.30;99.90
20442;DHT22;10380;52.102;20.614;2022-08-21T10:16:18;29.40;99.90
20442;DHT22;10380;52.102;20.614;2022-08-21T10:19:02;29.50;99.90
20442;DHT22;10380;52.102;20.614;2022-08-21T10:24:33;29.60;99.90
20442;DHT22;10380;52.102;20.614;2022-08-21T10:40:42;29.70;99.90
20442;DHT22;10380;52.102;20.614;2022-08-21T10:52:02;30.00;99.90
20442;DHT22;10380;52.102;20.614;2022-08-21T10:54:53;30.10;99.90
20442;DHT22;10380;52.102;20.614;2022-08-21T11:00:16;30.20;99.90
20442;DHT22;10380;52.102;20.614;2022-08-21T11:03:15;30.20;99.90
20442;DHT22;10380;52.102;20.614;2022-08-21T11:05:50;30.20;99.90
20442;DHT22;10380;52.102;20.614;2022-08-21T11:08:24;30.10;99.90
20442;DHT22;10380;52.102;20.614;2022-08-21T11:13:54;30.30;99.90
20442;DHT22;10380;52.102;20.614;2022-08-21T11:22:11;30.60;99.90
20442;DHT22;10380;52.102;20.614;2022-08-21T11:25:00;30.60;99.90
20442;DHT22;10380;52.102;20.614;2022-08-21T11:27:52;30.40;99.90
20442;DHT22;10380;52.102;20.614;2022-08-21T11:30:21;30.20;99.90
20442;DHT22;10380;52.102;20.614;2022-08-21T11:35:57;30.00;99.90
20442;DHT22;10380;52.102;20.614;2022-08-21T11:38:39;29.90;99.90
20442;DHT22;10380;52.102;20.614;2022-08-21T11:46:36;29.80;99.90
20442;DHT22;10380;52.102;20.614;2022-08-21T11:52:19;29.70;99.90
20442;DHT22;10380;52.102;20.614;2022-08-21T11:57:48;29.70;99.90
20442;DHT22;10380;52.102;20.614;2022-08-21T12:00:25;29.90;99.90
20442;DHT22;10380;52.102;20.614;2022-08-21T12:02:55;29.90;99.90
20442;DHT22;10380;52.102;20.614;2022-08-21T12:05:31;30.00;99.90
20442;DHT22;10380;52.102;20.614;2022-08-21T12:08:03;30.30;99.90
20442;DHT22;10380;52.102;20.614;2022-08-21T12:10:34;30.80;99.90
20442;DHT22;10380;52.102;20.614;2022-08-21T12:13:30;31.40;99.90
20442;DHT22;10380;52.102;20.614;2022-08-21T12:16:13;32.00;99.90
20442;DHT22;10380;52.102;20.614;2022-08-21T12:18:41;32.50;99.90
20442;DHT22;10380;52.102;20.614;2022-08-21T12:21:26;33.10;99.90
20442;DHT22;10380;52.102;20.614;2022-08-21T12:26:53;34.30;99.90
20442;DHT22;10380;52.102;20.614;2022-08-21T12:29:26;34.70;99.90
20442;DHT22;10380;52.102;20.614;2022-08-21T12:34:42;35.00;99.90
20442;DHT22;10380;52.102;20.614;2022-08-21T12:37:24;34.80;99.90
20442;DHT22;10380;52.102;20.614;2022-08-21T12:39:59;34.50;99.90
20442;DHT22;10380;52.102;20.614;2022-08-21T12:42:36;34.00;99.90
20442;DHT22;10380;52.102;20.614;2022-08-21T12:45:19;33.70;99.90
20442;DHT22;10380;52.102;20.614;2022-08-21T12:48:13;33.30;99.90
20442;DHT22;10380;52.102;20.614;2022-08-21T12:50:49;33.10;99.90
20442;DHT22;10380;52.102;20.614;2022-08-21T12:53:55;33.20;99.90
20442;DHT22;10380;52.102;20.614;2022-08-21T12:56:29;33.60;99.90
20442;DHT22;10380;52.102;20.614;2022-08-21T12:59:01;33.90;99.90
20442;DHT22;10380;52.102;20.614;2022-08-21T13:01:36;34.30;99.90
20442;DHT22;10380;52.102;20.614;2022-08-21T13:04:13;34.80;99.90
20442;DHT22;10380;52.102;20.614;2022-08-21T13:06:47;35.40;99.90
20442;DHT22;10380;52.102;20.614;2022-08-21T13:09:16;36.00;99.00
20442;DHT22;10380;52.102;20.614;2022-08-21T13:11:46;36.80;98.20
20442;DHT22;10380;52.102;20.614;2022-08-21T13:14:31;37.40;97.30
20442;DHT22;10380;52.102;20.614;2022-08-21T13:17:05;37.80;96.10
20442;DHT22;10380;52.102;20.614;2022-08-21T13:19:33;38.10;95.60
20442;DHT22;10380;52.102;20.614;2022-08-21T13:22:01;37.90;95.00
20442;DHT22;10380;52.102;20.614;2022-08-21T13:24:50;37.80;94.70
20442;DHT22;10380;52.102;20.614;2022-08-21T13:27:20;37.70;94.00
20442;DHT22;10380;52.102;20.614;2022-08-21T13:29:48;37.90;93.50
20442;DHT22;10380;52.102;20.614;2022-08-21T13:32:23;38.40;93.10
20442;DHT22;10380;52.102;20.614;2022-08-21T13:34:52;39.00;92.30
20442;DHT22;10380;52.102;20.614;2022-08-21T13:37:21;39.50;91.60
20442;DHT22;10380;52.102;20.614;2022-08-21T13:39:53;39.70;90.30
20442;DHT22;10380;52.102;20.614;2022-08-21T13:42:21;39.80;89.90
20442;DHT22;10380;52.102;20.614;2022-08-21T13:44:52;40.00;88.80
20442;DHT22;10380;52.102;20.614;2022-08-21T13:47:20;40.10;87.20
20442;DHT22;10380;52.102;20.614;2022-08-21T13:49:49;40.30;86.50
20442;DHT22;10380;52.102;20.614;2022-08-21T13:52:23;40.40;85.70
20442;DHT22;10380;52.102;20.614;2022-08-21T13:55:15;40.40;84.50
20442;DHT22;10380;52.102;20.614;2022-08-21T13:57:42;40.30;83.90
20442;DHT22;10380;52.102;20.614;2022-08-21T14:00:25;39.60;83.50
20442;DHT22;10380;52.102;20.614;2022-08-21T14:02:53;38.70;83.00
20442;DHT22;10380;52.102;20.614;2022-08-21T14:05:29;37.60;85.00
20442;DHT22;10380;52.102;20.614;2022-08-21T14:08:14;36.80;87.00
20442;DHT22;10380;52.102;20.614;2022-08-21T14:10:46;36.50;87.80
20442;DHT22;10380;52.102;20.614;2022-08-21T14:16:01;36.70;87.60
20442;DHT22;10380;52.102;20.614;2022-08-21T14:18:29;36.70;87.20
20442;DHT22;10380;52.102;20.614;2022-08-21T14:21:07;36.80;87.80
20442;DHT22;10380;52.102;20.614;2022-08-21T14:23:34;36.70;87.80
20442;DHT22;10380;52.102;20.614;2022-08-21T14:26:04;36.40;87.50
20442;DHT22;10380;52.102;20.614;2022-08-21T14:28:40;36.00;87.40
20442;DHT22;10380;52.102;20.614;2022-08-21T14:31:19;35.60;88.50
20442;DHT22;10380;52.102;20.614;2022-08-21T14:33:47;35.20;89.50
20442;DHT22;10380;52.102;20.614;2022-08-21T14:36:15;35.30;90.20
20442;DHT22;10380;52.102;20.614;2022-08-21T14:38:42;35.30;90.40
20442;DHT22;10380;52.102;20.614;2022-08-21T14:41:18;35.30;90.20
20442;DHT22;10380;52.102;20.614;2022-08-21T14:43:50;35.20;90.30
20442;DHT22;10380;52.102;20.614;2022-08-21T14:46:33;35.20;90.40
20442;DHT22;10380;52.102;20.614;2022-08-21T14:49:10;35.10;90.40
20442;DHT22;10380;52.102;20.614;2022-08-21T14:51:38;35.10;90.80
20442;DHT22;10380;52.102;20.614;2022-08-21T14:54:19;34.90;90.60
20442;DHT22;10380;52.102;20.614;2022-08-21T14:56:57;34.80;90.60
20442;DHT22;10380;52.102;20.614;2022-08-21T14:59:24;34.60;90.90
20442;DHT22;10380;52.102;20.614;2022-08-21T15:01:52;34.40;91.30
20442;DHT22;10380;52.102;20.614;2022-08-21T15:04:19;34.40;91.50
20442;DHT22;10380;52.102;20.614;2022-08-21T15:06:46;34.50;91.80
20442;DHT22;10380;52.102;20.614;2022-08-21T15:09:13;34.60;91.70
20442;DHT22;10380;52.102;20.614;2022-08-21T15:11:41;34.80;91.50
20442;DHT22;10380;52.102;20.614;2022-08-21T15:14:12;35.00;91.50
20442;DHT22;10380;52.102;20.614;2022-08-21T15:16:41;35.10;91.30
20442;DHT22;10380;52.102;20.614;2022-08-21T15:19:08;35.10;91.30
20442;DHT22;10380;52.102;20.614;2022-08-21T15:21:35;34.90;91.10
20442;DHT22;10380;52.102;20.614;2022-08-21T15:24:03;34.80;91.30
20442;DHT22;10380;52.102;20.614;2022-08-21T15:26:30;34.40;91.30
20442;DHT22;10380;52.102;20.614;2022-08-21T15:28:59;34.20;92.00
20442;DHT22;10380;52.102;20.614;2022-08-21T15:31:27;34.00;92.20
20442;DHT22;10380;52.102;20.614;2022-08-21T15:33:54;33.90;92.50
20442;DHT22;10380;52.102;20.614;2022-08-21T15:36:22;33.90;92.80
20442;DHT22;10380;52.102;20.614;2022-08-21T15:38:49;33.80;92.70
20442;DHT22;10380;52.102;20.614;2022-08-21T15:41:18;33.70;92.90
20442;DHT22;10380;52.102;20.614;2022-08-21T15:43:48;33.60;93.00
20442;DHT22;10380;52.102;20.614;2022-08-21T15:46:17;33.40;93.40
20442;DHT22;10380;52.102;20.614;2022-08-21T15:48:45;33.00;93.60
20442;DHT22;10380;52.102;20.614;2022-08-21T15:51:14;32.70;93.80
20442;DHT22;10380;52.102;20.614;2022-08-21T15:53:41;32.50;94.40
20442;DHT22;10380;52.102;20.614;2022-08-21T15:56:21;32.30;94.80
20442;DHT22;10380;52.102;20.614;2022-08-21T15:58:57;32.10;95.30
20442;DHT22;10380;52.102;20.614;2022-08-21T16:01:25;31.90;95.50
20442;DHT22;10380;52.102;20.614;2022-08-21T16:03:54;31.80;95.80
20442;DHT22;10380;52.102;20.614;2022-08-21T16:06:21;31.70;96.00
20442;DHT22;10380;52.102;20.614;2022-08-21T16:09:08;31.60;96.30
20442;DHT22;10380;52.102;20.614;2022-08-21T16:11:35;31.40;96.60
20442;DHT22;10380;52.102;20.614;2022-08-21T16:14:02;31.30;96.80
20442;DHT22;10380;52.102;20.614;2022-08-21T16:16:31;31.20;96.90
20442;DHT22;10380;52.102;20.614;2022-08-21T16:19:00;31.00;96.90
20442;DHT22;10380;52.102;20.614;2022-08-21T16:21:29;30.90;97.00
20442;DHT22;10380;52.102;20.614;2022-08-21T16:23:56;30.70;97.10
20442;DHT22;10380;52.102;20.614;2022-08-21T16:26:23;30.60;97.30
20442;DHT22;10380;52.102;20.614;2022-08-21T16:28:53;30.40;97.60
20442;DHT22;10380;52.102;20.614;2022-08-21T16:31:21;30.40;98.20
20442;DHT22;10380;52.102;20.614;2022-08-21T16:33:52;30.30;98.20
20442;DHT22;10380;52.102;20.614;2022-08-21T16:36:23;30.10;98.40
20442;DHT22;10380;52.102;20.614;2022-08-21T16:38:53;29.90;98.60
20442;DHT22;10380;52.102;20.614;2022-08-21T16:41:21;29.80;98.80
20442;DHT22;10380;52.102;20.614;2022-08-21T16:43:50;29.70;99.10
20442;DHT22;10380;52.102;20.614;2022-08-21T16:46:18;29.60;99.40
20442;DHT22;10380;52.102;20.614;2022-08-21T16:48:46;29.40;99.70
20442;DHT22;10380;52.102;20.614;2022-08-21T16:51:14;29.30;99.90
20442;DHT22;10380;52.102;20.614;2022-08-21T16:53:42;29.30;99.90
20442;DHT22;10380;52.102;20.614;2022-08-21T16:56:11;29.20;99.90
20442;DHT22;10380;52.102;20.614;2022-08-21T16:58:41;29.10;99.90
20442;DHT22;10380;52.102;20.614;2022-08-21T17:01:10;29.10;99.90